首页
METAR-TAF:

METAR-TAF

机场 :

迪拜国际机场

杜拜, 阿拉伯联合酋长国

纬度: 25-15-10N, 经度: 055-21-52E, 海拔: 8米

当前天气观测

该预报发布于10分钟前的23:00 UTC
风速4节,风向
温度 18°C
湿度 73%
气压 1019 hPa
能見度: 8000

METAR: OMDB 232300Z 18004KT 8000 NSC 18/13 Q1019 NOSIG

时间: 03:10 (23:10 UTC)

预报

该预报发布于6小时和8分钟前的17:02 UTC
预报有效从23日的 18点(UTC)到 25日的 00点(UTC)
风速10节,风向西
能見度: 8000
成为
从 23日的 18点(UTC)到 23日的 20点(UTC)
风速5节,风向南转南东
几率 30%
从 24日的 01点(UTC)到 24日的 04点(UTC)
能見度: 4000
成为
从 24日的 08点(UTC)到 24日的 10点(UTC)
风速10节,风向北转东北
成为
从 24日的 15点(UTC)到 24日的 17点(UTC)
风速5节,风向

TAF: OMDB 231702Z 2318/2500 27010KT 8000 NSC BECMG 2318/2320 16005KT PROB30 2401/2404 4000 HZ BECMG 2408/2410 02010KT BECMG 2415/2417 08005KT

超过4000个机场的气象观测和天气预报(METAR&TAF报告)。

可查询的气象台以黄色和红色小点在地图上表示。

将鼠标移到小点上方,可查看气象台名称。

然后点击查看天气观测和预报。

如需切换地图:点击带黑十字的绿色按钮放大地图;点击带横线的绿色按钮缩小地图;或者点击绿色箭头查看邻近地区的地图。


METAR-TAF: